Terminal Aerodrome Forecast
Issued by NWS

Home | Current Version | Previous Version | Text Only | Print | Product List | Glossary On
Versions: 1 2 3 4 5 6 7 8 9 10 11 12 13 14 15 16 17 18 19 20 21 22 23 24 25 26 27 28 29 30 31 32 33 34 35 36
000
FTUS42 KRAH 272330
TAFRWI
TAF
KRWI 272330Z 2800/2824 VRB04KT P6SM FEW050 BKN250
      TEMPO 2812/2816 3SM -SHRA BKN015 OVC035
     FM281700 22010G17KT P6SM SCT040 BKN250 PROB30 2820/2824
      VRB15G30KT 2SM TSRA BKN025CB=

USA.gov is the U.S. government's official web portal to all federal, state and local government web resources and services.